Richardton, North Dakota
Current Conditions -  °F | °C
As of 8:55 AM on Friday 28 Nov 2014 (Local Time) from KD57 Reporting Station
Clear Clear  
Wind Chill: -15°   Ceiling: Unl
Heat Index: -9°   Visibility: 10mi
Dew Point: -12°   Wind: 9mph
Humidity: 79%   Direction: 120°ESE
Pressure: 29.7"   Gusts: NA
Location:  46.88°N, 102.32°W
Report Text: KD57 281555Z AUTO 12008KT 10SM CLR M09/M12 A2970 RMK AO2 TSNO
Loading
Personal Weather Stations






























Interactive Weather Map New forecast layout! Learn more

10-Day Weather Forecast

Advertisements
Track Severe Weather on mobile